createdAt,value
2017-03-24T00:00:55.143Z,1025.766
2017-03-24T00:03:48.216Z,1025.802
2017-03-24T00:06:41.419Z,1025.778
2017-03-24T00:09:34.557Z,1025.747
2017-03-24T00:15:21.080Z,1025.742
2017-03-24T00:18:14.338Z,1025.747
2017-03-24T00:21:07.504Z,1025.768
2017-03-24T00:26:53.883Z,1025.803
2017-03-24T00:32:40.059Z,1025.926
2017-03-24T00:38:26.340Z,1025.982
2017-03-24T00:41:19.577Z,1026.010
2017-03-24T00:47:05.751Z,1026.013
2017-03-24T00:49:59.384Z,1025.998
2017-03-24T00:52:52.719Z,1026.024
2017-03-24T00:55:45.881Z,1026.062
2017-03-24T00:58:39.019Z,1026.076
2017-03-24T01:01:32.229Z,1026.109
2017-03-24T01:04:25.561Z,1026.102
2017-03-24T01:07:18.893Z,1026.132
2017-03-24T01:10:12.283Z,1026.181
2017-03-24T01:13:05.633Z,1026.203
2017-03-24T01:15:59.208Z,1026.236
2017-03-24T01:18:52.502Z,1026.238
2017-03-24T01:21:45.850Z,1026.230
2017-03-24T01:24:39.518Z,1026.256
2017-03-24T01:27:33.223Z,1026.313
2017-03-24T01:30:27.065Z,1026.368
2017-03-24T01:36:14.569Z,1026.447
2017-03-24T01:39:08.840Z,1026.447
2017-03-24T01:42:02.634Z,1026.518
2017-03-24T01:44:56.285Z,1026.555
2017-03-24T01:47:49.907Z,1026.592
2017-03-24T01:50:43.463Z,1026.684
2017-03-24T01:53:36.993Z,1026.693
2017-03-24T01:59:23.775Z,1026.756
2017-03-24T02:02:17.183Z,1026.782
2017-03-24T02:05:10.457Z,1026.850
2017-03-24T02:08:04.127Z,1026.867
2017-03-24T02:16:45.145Z,1027.077
2017-03-24T02:19:38.865Z,1027.100
2017-03-24T02:22:32.592Z,1027.117
2017-03-24T02:25:26.392Z,1027.160
2017-03-24T02:31:14.031Z,1027.151
2017-03-24T02:37:01.464Z,1027.248
2017-03-24T02:42:48.831Z,1027.305
2017-03-24T02:48:36.230Z,1027.399
2017-03-24T02:51:30.018Z,1027.473
2017-03-24T02:54:23.879Z,1027.494
2017-03-24T02:57:18.008Z,1027.512
2017-03-24T03:00:11.825Z,1027.533
2017-03-24T03:03:05.342Z,1027.549
2017-03-24T03:05:58.813Z,1027.612
2017-03-24T03:08:52.350Z,1027.659
2017-03-24T03:11:45.808Z,1027.687
2017-03-24T03:14:39.293Z,1027.701
2017-03-24T03:17:32.733Z,1027.724
2017-03-24T03:23:19.725Z,1027.814
2017-03-24T03:26:13.175Z,1027.858
2017-03-24T03:29:06.705Z,1027.919
2017-03-24T03:32:00.100Z,1027.953
2017-03-24T03:34:53.446Z,1027.955
2017-03-24T03:37:46.911Z,1027.986
2017-03-24T03:40:40.581Z,1028.029
2017-03-24T03:43:34.046Z,1028.092
2017-03-24T03:49:21.594Z,1028.150
2017-03-24T03:52:15.354Z,1028.222
2017-03-24T03:55:08.830Z,1028.223
2017-03-24T03:58:02.302Z,1028.321
2017-03-24T04:06:42.687Z,1028.449
2017-03-24T04:09:36.204Z,1028.452
2017-03-24T04:18:16.731Z,1028.532
2017-03-24T04:21:10.198Z,1028.516
2017-03-24T04:29:50.677Z,1028.569
2017-03-24T04:32:44.135Z,1028.605
2017-03-24T04:38:31.194Z,1028.655
2017-03-24T04:41:24.511Z,1028.714
2017-03-24T04:44:17.880Z,1028.796
2017-03-24T04:47:11.398Z,1028.878
2017-03-24T04:52:58.243Z,1029.016
2017-03-24T04:55:51.706Z,1029.067
2017-03-24T04:58:45.064Z,1029.133
2017-03-24T05:01:38.442Z,1029.190
2017-03-24T05:04:31.785Z,1029.235
2017-03-24T05:10:18.648Z,1029.403
2017-03-24T05:13:12.100Z,1029.482
2017-03-24T05:18:58.820Z,1029.561
2017-03-24T05:21:52.214Z,1029.650
2017-03-24T05:24:45.553Z,1029.716
2017-03-24T05:30:32.462Z,1029.751
2017-03-24T05:36:19.607Z,1029.808
2017-03-24T05:42:06.763Z,1029.903
2017-03-24T05:47:54.066Z,1030.067
2017-03-24T05:50:47.621Z,1030.027
2017-03-24T05:53:41.303Z,1030.058
2017-03-24T05:56:35.020Z,1030.121
2017-03-24T05:59:28.654Z,1030.115
2017-03-24T06:02:22.458Z,1030.155
2017-03-24T06:05:16.116Z,1030.241
2017-03-24T06:08:09.814Z,1030.303
2017-03-24T06:11:03.482Z,1030.403
2017-03-24T06:13:57.289Z,1030.455
2017-03-24T06:16:51.185Z,1030.424
2017-03-24T06:19:45.028Z,1030.419
2017-03-24T06:22:38.978Z,1030.440
2017-03-24T06:28:26.708Z,1030.507
2017-03-24T06:31:20.601Z,1030.569
2017-03-24T06:37:08.874Z,1030.593
2017-03-24T06:40:03.129Z,1030.563
2017-03-24T06:42:57.587Z,1030.557
2017-03-24T06:45:52.058Z,1030.546
2017-03-24T06:48:46.672Z,1030.524
2017-03-24T06:51:41.293Z,1030.620
2017-03-24T06:54:35.811Z,1030.605
2017-03-24T06:57:30.243Z,1030.607
2017-03-24T07:00:24.731Z,1030.588
2017-03-24T07:03:19.337Z,1030.646
2017-03-24T07:06:13.838Z,1030.580
2017-03-24T07:09:08.451Z,1030.630
2017-03-24T07:12:03.002Z,1030.608
2017-03-24T07:14:57.383Z,1030.622
2017-03-24T07:20:45.796Z,1030.617
2017-03-24T07:23:40.097Z,1030.620
2017-03-24T07:26:34.513Z,1030.662
2017-03-24T07:32:23.140Z,1030.737
2017-03-24T07:35:17.386Z,1030.772
2017-03-24T07:38:11.727Z,1030.806
2017-03-24T07:41:05.962Z,1030.838
2017-03-24T07:44:00.513Z,1030.895
2017-03-24T07:46:54.904Z,1030.897
2017-03-24T07:49:49.339Z,1030.908
2017-03-24T07:52:43.845Z,1030.963
2017-03-24T07:55:38.375Z,1031.024
2017-03-24T07:58:33.014Z,1031.035
2017-03-24T08:01:27.703Z,1031.073
2017-03-24T08:04:22.185Z,1031.021
2017-03-24T08:07:16.634Z,1030.990
2017-03-24T08:10:11.250Z,1030.873
2017-03-24T08:13:06.871Z,1030.876
2017-03-24T08:16:02.272Z,1030.885
2017-03-24T08:18:58.268Z,1030.920
2017-03-24T08:21:54.097Z,1030.866
2017-03-24T08:24:49.891Z,1030.811
2017-03-24T08:30:39.794Z,1030.874
2017-03-24T08:33:35.005Z,1030.867
2017-03-24T08:36:30.074Z,1030.854
2017-03-24T08:39:25.131Z,1030.895
2017-03-24T08:42:20.797Z,1030.811
2017-03-24T08:45:16.631Z,1030.747
2017-03-24T08:48:12.086Z,1030.779
2017-03-24T08:51:07.776Z,1030.757
2017-03-24T08:54:03.229Z,1030.734
2017-03-24T08:56:58.853Z,1030.778
2017-03-24T08:59:54.270Z,1030.804
2017-03-24T09:02:49.775Z,1030.777
2017-03-24T09:05:45.110Z,1030.786
2017-03-24T09:08:40.397Z,1030.744
2017-03-24T09:11:35.254Z,1030.719
2017-03-24T09:14:30.564Z,1030.673
2017-03-24T09:17:25.783Z,1030.639
2017-03-24T09:20:20.865Z,1030.659
2017-03-24T09:23:16.102Z,1030.618
2017-03-24T09:26:11.197Z,1030.656
2017-03-24T09:29:06.276Z,1030.666
2017-03-24T09:32:01.188Z,1030.747
2017-03-24T09:34:56.405Z,1030.747
2017-03-24T09:37:51.481Z,1030.703
2017-03-24T09:40:46.652Z,1030.749
2017-03-24T09:43:41.575Z,1030.799
2017-03-24T09:46:36.291Z,1030.759
2017-03-24T09:49:30.804Z,1030.786
2017-03-24T09:52:25.174Z,1030.841
2017-03-24T09:55:19.771Z,1030.844
2017-03-24T09:58:13.771Z,1030.799
2017-03-24T10:01:08.163Z,1030.796
2017-03-24T10:04:03.369Z,1030.661
2017-03-24T10:06:58.363Z,1030.634
2017-03-24T10:09:53.096Z,1030.701
2017-03-24T10:12:48.024Z,1030.742
2017-03-24T10:15:43.240Z,1030.858
2017-03-24T10:18:38.479Z,1030.833
2017-03-24T10:21:34.010Z,1030.891
2017-03-24T10:24:29.080Z,1030.902
2017-03-24T10:27:23.350Z,1030.879
2017-03-24T10:30:16.807Z,1030.935
2017-03-24T10:33:10.475Z,1031.043
2017-03-24T10:36:04.291Z,1031.165
2017-03-24T10:38:58.846Z,1031.222
2017-03-24T10:41:53.902Z,1031.290
2017-03-24T10:44:49.048Z,1031.358
2017-03-24T10:47:44.176Z,1031.409
2017-03-24T10:50:39.456Z,1031.410
2017-03-24T10:56:29.450Z,1031.410
2017-03-24T10:59:24.682Z,1031.454
2017-03-24T11:02:19.765Z,1031.500
2017-03-24T11:05:14.816Z,1031.546
2017-03-24T11:08:09.800Z,1031.477
2017-03-24T11:11:04.772Z,1031.494
2017-03-24T11:13:59.652Z,1031.605
2017-03-24T11:19:49.113Z,1031.725
2017-03-24T11:22:43.643Z,1031.768
2017-03-24T11:25:37.964Z,1031.763
2017-03-24T11:28:32.464Z,1031.772
2017-03-24T11:31:27.103Z,1031.758
2017-03-24T11:34:21.592Z,1031.796
2017-03-24T11:37:16.149Z,1031.745
2017-03-24T11:40:10.547Z,1031.721
2017-03-24T11:45:59.289Z,1031.790
2017-03-24T11:48:53.695Z,1031.757
2017-03-24T11:51:48.197Z,1031.763
2017-03-24T11:54:42.583Z,1031.787
2017-03-24T11:57:36.913Z,1031.735
2017-03-24T12:00:31.271Z,1031.687
2017-03-24T12:03:25.629Z,1031.718
2017-03-24T12:06:20.006Z,1031.752
2017-03-24T12:09:14.433Z,1031.716
2017-03-24T12:12:08.903Z,1031.654
2017-03-24T12:15:03.320Z,1031.639
2017-03-24T12:17:57.718Z,1031.616
2017-03-24T12:20:51.946Z,1031.557
2017-03-24T12:23:46.156Z,1031.578
2017-03-24T12:26:40.377Z,1031.583
2017-03-24T12:29:34.597Z,1031.566
2017-03-24T12:32:28.884Z,1031.525
2017-03-24T12:35:22.994Z,1031.474
2017-03-24T12:38:17.227Z,1031.479
2017-03-24T12:44:05.588Z,1031.446
2017-03-24T12:46:59.687Z,1031.387
2017-03-24T12:49:53.928Z,1031.392
2017-03-24T12:52:47.834Z,1031.403
2017-03-24T12:55:41.804Z,1031.424
2017-03-24T12:58:35.695Z,1031.435
2017-03-24T13:01:29.686Z,1031.431
2017-03-24T13:04:23.723Z,1031.483
2017-03-24T13:07:17.503Z,1031.498
2017-03-24T13:10:11.483Z,1031.487
2017-03-24T13:13:05.375Z,1031.449
2017-03-24T13:15:59.172Z,1031.374
2017-03-24T13:18:53.061Z,1031.382
2017-03-24T13:21:46.974Z,1031.368
2017-03-24T13:24:40.980Z,1031.387
2017-03-24T13:27:34.816Z,1031.337
2017-03-24T13:30:28.680Z,1031.319
2017-03-24T13:33:22.650Z,1031.311
2017-03-24T13:36:16.441Z,1031.303
2017-03-24T13:39:10.347Z,1031.252
2017-03-24T13:42:04.219Z,1031.279
2017-03-24T13:44:58.070Z,1031.310
2017-03-24T13:47:51.985Z,1031.305
2017-03-24T13:50:45.638Z,1031.253
2017-03-24T13:53:39.377Z,1031.294
2017-03-24T13:56:33.070Z,1031.213
2017-03-24T14:02:20.430Z,1031.158
2017-03-24T14:05:14.095Z,1031.180
2017-03-24T14:08:07.597Z,1031.207
2017-03-24T14:11:01.208Z,1031.215
2017-03-24T14:13:54.802Z,1031.221
2017-03-24T14:16:48.419Z,1031.252
2017-03-24T14:19:42.086Z,1031.258
2017-03-24T14:22:35.739Z,1031.252
2017-03-24T14:25:29.476Z,1031.208
2017-03-24T14:28:23.016Z,1031.178
2017-03-24T14:31:16.652Z,1031.154
2017-03-24T14:34:10.371Z,1031.153
2017-03-24T14:37:04.120Z,1031.232
2017-03-24T14:39:57.729Z,1031.290
2017-03-24T14:42:51.364Z,1031.317
2017-03-24T14:45:45.168Z,1031.332
2017-03-24T14:48:38.862Z,1031.292
2017-03-24T14:51:32.561Z,1031.280
2017-03-24T14:54:26.200Z,1031.310
2017-03-24T14:57:19.886Z,1031.358
2017-03-24T15:00:13.434Z,1031.335
2017-03-24T15:03:06.923Z,1031.343
2017-03-24T15:06:00.730Z,1031.313
2017-03-24T15:08:54.312Z,1031.351
2017-03-24T15:11:47.933Z,1031.339
2017-03-24T15:14:41.506Z,1031.313
2017-03-24T15:17:35.237Z,1031.288
2017-03-24T15:20:28.873Z,1031.329
2017-03-24T15:23:22.413Z,1031.276
2017-03-24T15:26:15.938Z,1031.285
2017-03-24T15:29:09.443Z,1031.239
2017-03-24T15:34:56.743Z,1031.191
2017-03-24T15:37:50.314Z,1031.197
2017-03-24T15:40:43.817Z,1031.202
2017-03-24T15:43:37.372Z,1031.172
2017-03-24T15:46:31.008Z,1031.173
2017-03-24T15:49:24.531Z,1031.249
2017-03-24T15:52:17.905Z,1031.309
2017-03-24T15:55:11.447Z,1031.339
2017-03-24T15:58:04.946Z,1031.325
2017-03-24T16:00:58.402Z,1031.329
2017-03-24T16:03:51.954Z,1031.309
2017-03-24T16:06:45.205Z,1031.336
2017-03-24T16:09:38.630Z,1031.369
2017-03-24T16:12:32.042Z,1031.374
2017-03-24T16:18:18.761Z,1031.378
2017-03-24T16:21:12.116Z,1031.427
2017-03-24T16:24:05.340Z,1031.413
2017-03-24T16:26:58.495Z,1031.441
2017-03-24T16:29:51.717Z,1031.461
2017-03-24T16:32:45.109Z,1031.505
2017-03-24T16:35:38.292Z,1031.538
2017-03-24T16:38:31.652Z,1031.477
2017-03-24T16:41:25.038Z,1031.461
2017-03-24T16:47:11.939Z,1031.562
2017-03-24T16:50:05.531Z,1031.536
2017-03-24T16:52:58.899Z,1031.568
2017-03-24T16:55:52.270Z,1031.592
2017-03-24T16:58:45.692Z,1031.640
2017-03-24T17:01:39.086Z,1031.695
2017-03-24T17:07:26.031Z,1031.720
2017-03-24T17:10:19.540Z,1031.715
2017-03-24T17:13:12.797Z,1031.712
2017-03-24T17:16:06.010Z,1031.742
2017-03-24T17:18:59.301Z,1031.725
2017-03-24T17:21:52.588Z,1031.709
2017-03-24T17:24:46.053Z,1031.707
2017-03-24T17:27:39.394Z,1031.681
2017-03-24T17:30:32.812Z,1031.694
2017-03-24T17:33:26.136Z,1031.710
2017-03-24T17:36:19.525Z,1031.695
2017-03-24T17:39:12.781Z,1031.651
2017-03-24T17:42:05.939Z,1031.678
2017-03-24T17:44:59.364Z,1031.800
2017-03-24T17:50:46.104Z,1031.790
2017-03-24T17:53:40.020Z,1031.780
2017-03-24T17:56:33.093Z,1031.798
2017-03-24T17:59:26.642Z,1031.864
2017-03-24T18:02:20.453Z,1031.884
2017-03-24T18:05:13.544Z,1031.851
2017-03-24T18:08:06.796Z,1031.918
2017-03-24T18:10:59.949Z,1031.964
2017-03-24T18:13:53.081Z,1031.956
2017-03-24T18:16:46.210Z,1031.969
2017-03-24T18:19:39.337Z,1032.003
2017-03-24T18:22:32.307Z,1032.037
2017-03-24T18:28:18.489Z,1032.213
2017-03-24T18:31:11.657Z,1032.214
2017-03-24T18:34:04.742Z,1032.200
2017-03-24T18:36:57.773Z,1032.208
2017-03-24T18:39:50.801Z,1032.269
2017-03-24T18:45:37.228Z,1032.253
2017-03-24T18:48:30.489Z,1032.267
2017-03-24T18:51:23.743Z,1032.295
2017-03-24T18:54:16.970Z,1032.274
2017-03-24T18:57:09.911Z,1032.334
2017-03-24T19:00:03.084Z,1032.334
2017-03-24T19:05:48.992Z,1032.382
2017-03-24T19:08:41.949Z,1032.365
2017-03-24T19:11:35.091Z,1032.369
2017-03-24T19:14:27.901Z,1032.432
2017-03-24T19:17:20.689Z,1032.466
2017-03-24T19:20:13.660Z,1032.450
2017-03-24T19:23:06.339Z,1032.420
2017-03-24T19:28:52.639Z,1032.443
2017-03-24T19:31:46.294Z,1032.408
2017-03-24T19:34:39.573Z,1032.371
2017-03-24T19:40:26.928Z,1032.440
2017-03-24T19:43:20.388Z,1032.435
2017-03-24T19:49:07.491Z,1032.472
2017-03-24T19:54:55.168Z,1032.507
2017-03-24T19:57:48.934Z,1032.531
2017-03-24T20:00:42.791Z,1032.541
2017-03-24T20:03:36.306Z,1032.541
2017-03-24T20:12:17.629Z,1032.548
2017-03-24T20:15:11.397Z,1032.553
2017-03-24T20:20:58.990Z,1032.592
2017-03-24T20:23:52.781Z,1032.621
2017-03-24T20:29:40.238Z,1032.658
2017-03-24T20:32:34.189Z,1032.646
2017-03-24T20:35:27.966Z,1032.679
2017-03-24T20:38:21.785Z,1032.711
2017-03-24T20:44:09.226Z,1032.773
2017-03-24T20:49:56.600Z,1032.887
2017-03-24T20:52:50.329Z,1032.869
2017-03-24T20:55:44.117Z,1032.891
2017-03-24T20:58:37.958Z,1032.921
2017-03-24T21:01:31.713Z,1032.958
2017-03-24T21:07:19.791Z,1032.937
2017-03-24T21:10:13.718Z,1032.970
2017-03-24T21:13:07.786Z,1032.978
2017-03-24T21:21:49.690Z,1033.020
2017-03-24T21:24:43.672Z,1033.069
2017-03-24T21:36:19.778Z,1033.056
2017-03-24T21:39:13.724Z,1033.034
2017-03-24T21:45:01.777Z,1033.022
2017-03-24T21:47:55.660Z,1033.082
2017-03-24T21:50:49.575Z,1033.111
2017-03-24T21:56:37.228Z,1033.184
2017-03-24T21:59:30.969Z,1033.189
2017-03-24T22:02:24.762Z,1033.153
2017-03-24T22:05:18.635Z,1033.160
2017-03-24T22:08:12.248Z,1033.144
2017-03-24T22:11:05.974Z,1033.094
2017-03-24T22:13:59.752Z,1033.138
2017-03-24T22:16:53.683Z,1033.119
2017-03-24T22:19:47.498Z,1033.161
2017-03-24T22:22:41.265Z,1033.187
2017-03-24T22:25:35.008Z,1033.197
2017-03-24T22:28:28.893Z,1033.153
2017-03-24T22:34:16.410Z,1033.143
2017-03-24T22:37:10.233Z,1033.170
2017-03-24T22:40:03.974Z,1033.175
2017-03-24T22:42:57.842Z,1033.295
2017-03-24T22:45:51.807Z,1033.268
2017-03-24T22:48:45.634Z,1033.162
2017-03-24T22:54:33.904Z,1033.081
2017-03-24T23:00:21.707Z,1033.204
2017-03-24T23:09:03.254Z,1033.142
2017-03-24T23:14:50.993Z,1033.020
2017-03-24T23:17:45.151Z,1032.986
2017-03-24T23:20:38.791Z,1032.975
2017-03-24T23:23:32.591Z,1032.916
2017-03-24T23:26:26.244Z,1032.899
2017-03-24T23:29:20.013Z,1032.941
2017-03-24T23:32:13.860Z,1032.994
2017-03-24T23:35:07.787Z,1033.001
2017-03-24T23:40:55.658Z,1032.977
2017-03-24T23:43:49.505Z,1033.020
2017-03-24T23:46:43.627Z,1033.036
2017-03-24T23:52:31.250Z,1032.964
